Time;durP1;ratioP1;P1;durP2;ratioP2;P2;SDS_P1;SDS_P2;PMS_P1;PMS_P2;Temp;Humidity;BMP_temperature;BMP_pressure;BME280_temperature;BME280_humidity;BME280_pressure;Samples;Min_cycle;Max_cycle;Signal;HPM_P1;HPM_P2
2022/12/06 00:01:57;;;;;;;0.33;0.27;;;;;;;5.92;100.00;100535.69;5030694;28;21018;-54
2022/12/06 00:04:23;;;;;;;4.00;0.60;;;;;;;5.83;100.00;100533.06;5030911;28;20510;-53
2022/12/06 00:06:53;;;;;;;0.90;0.90;;;;;;;5.80;100.00;100533.97;5030574;28;20502;-53
2022/12/06 00:09:22;;;;;;;0.60;0.40;;;;;;;5.80;100.00;100533.97;5031091;28;20471;-52
2022/12/06 00:11:49;;;;;;;6.73;1.37;;;;;;;5.77;100.00;100538.41;5030405;28;21020;-52
2022/12/06 00:14:16;;;;;;;1.37;0.50;;;;;;;5.71;100.00;100533.13;5030573;28;20455;-53
2022/12/06 00:16:43;;;;;;;0.40;0.40;;;;;;;5.68;100.00;100535.78;5025706;28;20940;-55
2022/12/06 00:19:15;;;;;;;0.63;0.63;;;;;;;5.67;100.00;100531.41;5030656;28;20455;-53
2022/12/06 00:21:42;;;;;;;0.40;0.30;;;;;;;5.68;100.00;100528.75;5012749;28;20456;-53
2022/12/06 00:24:15;;;;;;;0.43;0.40;;;;;;;5.73;100.00;100528.72;5030344;28;20474;-53
2022/12/06 00:26:43;;;;;;;0.30;0.20;;;;;;;5.64;100.00;100532.31;5029999;28;21007;-53
2022/12/06 00:29:16;;;;;;;0.70;0.70;;;;;;;5.64;100.00;100533.19;5030180;28;20610;-53
2022/12/06 00:31:42;;;;;;;0.30;0.20;;;;;;;5.64;100.00;100530.53;5012661;28;20452;-54
2022/12/06 00:34:09;;;;;;;0.40;0.40;;;;;;;5.70;100.00;100526.09;5030218;28;20709;-53
2022/12/06 00:36:37;;;;;;;0.40;0.20;;;;;;;5.68;100.00;100526.13;5030005;28;20456;-53
2022/12/06 00:39:07;;;;;;;0.27;0.23;;;;;;;5.64;100.00;100517.34;5026347;28;20559;-53
2022/12/06 00:41:33;;;;;;;2.00;0.60;;;;;;;5.71;100.00;100526.09;5029798;28;20896;-53
2022/12/06 00:43:59;;;;;;;0.47;0.40;;;;;;;5.68;100.00;100525.25;5029872;28;20452;-53
2022/12/06 00:46:29;;;;;;;0.40;0.30;;;;;;;5.74;100.00;100518.16;5024911;28;20615;-54
2022/12/06 00:48:57;;;;;;;0.40;0.30;;;;;;;5.73;100.00;100519.03;5024165;28;20476;-53
2022/12/06 00:51:26;;;;;;;0.27;0.23;;;;;;;5.71;100.00;100520.81;5029708;28;20462;-53
2022/12/06 00:53:52;;;;;;;0.20;0.20;;;;;;;5.65;100.00;100528.78;5029514;28;20448;-54
2022/12/06 00:56:19;;;;;;;0.33;0.33;;;;;;;5.68;100.00;100523.47;5029217;28;20868;-53
2022/12/06 00:58:46;;;;;;;0.30;0.30;;;;;;;5.87;100.00;100527.75;5029522;28;20475;-54
2022/12/06 01:01:21;;;;;;;0.27;0.20;;;;;;;6.16;100.00;100521.47;5029911;28;20463;-53
2022/12/06 01:03:52;;;;;;;0.30;0.20;;;;;;;6.10;100.00;100522.38;5029719;28;20550;-53
2022/12/06 01:06:22;;;;;;;0.50;0.50;;;;;;;6.33;100.00;100530.16;5029666;28;20486;-53
2022/12/06 01:08:48;;;;;;;0.40;0.40;;;;;;;6.23;100.00;100524.06;5029144;28;20502;-53
2022/12/06 01:11:16;;;;;;;0.37;0.33;;;;;;;6.15;100.00;100525.84;5029613;28;20460;-53
2022/12/06 01:13:42;;;;;;;0.40;0.40;;;;;;;6.09;100.00;100523.28;5029313;28;20447;-53
2022/12/06 01:16:12;;;;;;;0.30;0.20;;;;;;;6.32;100.00;100523.13;5026820;28;20456;-53
2022/12/06 01:18:40;;;;;;;0.30;0.20;;;;;;;5.99;100.00;100528.63;5027645;28;20463;-53
2022/12/06 01:21:11;;;;;;;0.30;0.20;;;;;;;6.32;100.00;100532.81;5029884;28;20459;-53
2022/12/06 01:23:38;;;;;;;1.00;1.00;;;;;;;6.28;100.00;100520.50;5029128;28;20456;-53
2022/12/06 01:26:06;;;;;;;0.40;0.40;;;;;;;5.99;100.00;100531.25;5029260;28;20479;-53
2022/12/06 01:28:33;;;;;;;0.30;0.20;;;;;;;5.98;100.00;100529.50;5029007;28;20495;-53
2022/12/06 01:31:04;;;;;;;0.30;0.20;;;;;;;5.88;100.00;100521.59;5029309;28;20456;-53
2022/12/06 01:33:31;;;;;;;0.30;0.30;;;;;;;5.96;100.00;100526.88;5029286;28;20913;-52
2022/12/06 01:35:57;;;;;;;0.30;0.30;;;;;;;5.98;100.00;100524.22;5028873;28;20456;-53
2022/12/06 01:38:24;;;;;;;0.40;0.30;;;;;;;5.88;100.00;100529.50;5029118;28;20482;-53
2022/12/06 01:40:51;;;;;;;0.33;0.30;;;;;;;6.01;100.00;100519.78;5026397;28;20517;-53
2022/12/06 01:43:39;;;;;;;0.70;0.70;;;;;;;5.83;100.00;100527.78;5029141;28;20479;-53
2022/12/06 01:46:27;;;;;;;1.77;0.40;;;;;;;6.03;100.00;100530.34;5026488;28;20451;-53
2022/12/06 01:49:08;;;;;;;0.70;0.70;;;;;;;5.81;100.00;100529.56;5023221;28;20495;-53
2022/12/06 01:51:35;;;;;;;0.60;0.60;;;;;;;6.02;100.00;100529.47;5028920;28;20457;-53
2022/12/06 01:54:07;;;;;;;0.33;0.27;;;;;;;6.14;100.00;100529.38;5028795;28;20542;-53
2022/12/06 01:56:33;;;;;;;0.30;0.30;;;;;;;5.92;100.00;100526.03;5028841;28;20452;-53
2022/12/06 01:59:00;;;;;;;0.73;0.60;;;;;;;5.94;100.00;100531.28;5024563;28;20472;-53
2022/12/06 02:01:28;;;;;;;0.30;0.30;;;;;;;5.92;100.00;100520.75;5020142;28;20452;-53
2022/12/06 02:03:58;;;;;;;0.40;0.40;;;;;;;5.64;100.00;100533.19;5028779;28;20451;-53
2022/12/06 02:06:25;;;;;;;0.40;0.40;;;;;;;5.96;100.00;100526.00;5028861;28;20525;-53
2022/12/06 02:08:52;;;;;;;0.83;0.83;;;;;;;5.76;100.00;100520.81;5028533;28;20533;-53
2022/12/06 02:11:18;;;;;;;0.30;0.30;;;;;;;5.64;100.00;100522.63;5028512;28;20455;-53
2022/12/06 02:13:45;;;;;;;0.73;0.40;;;;;;;5.59;100.00;100519.13;5029152;28;20462;-53
2022/12/06 02:16:27;;;;;;;0.40;0.33;;;;;;;5.56;100.00;100520.91;5025938;28;20491;-53
2022/12/06 02:19:13;;;;;;;1.70;0.70;;;;;;;5.58;100.00;100513.84;5005094;28;20503;-53
2022/12/06 02:21:57;;;;;;;0.53;0.53;;;;;;;5.46;100.00;100514.78;5028681;28;20451;-53
2022/12/06 02:24:40;;;;;;;0.40;0.40;;;;;;;5.45;100.00;100512.16;5028995;28;20448;-53
2022/12/06 02:27:53;;;;;;;0.30;0.20;;;;;;;5.49;100.00;100514.78;5006949;28;20468;-53
2022/12/06 02:30:45;;;;;;;0.57;0.37;;;;;;;5.51;100.00;100525.31;5005985;28;20913;-53
2022/12/06 02:33:22;;;;;;;0.43;0.43;;;;;;;5.56;100.00;100521.78;5028816;28;20486;-53
2022/12/06 02:36:06;;;;;;;1.07;1.07;;;;;;;5.40;100.00;100521.84;5028473;28;20451;-53
2022/12/06 02:38:40;;;;;;;0.40;0.33;;;;;;;5.53;100.00;100515.66;5043754;23;20572;-55
2022/12/06 02:41:10;;;;;;;0.90;0.80;;;;;;;5.44;100.00;100513.91;5039711;28;20456;-55
2022/12/06 02:43:42;;;;;;;0.40;0.30;;;;;;;5.46;100.00;100506.00;5021858;28;20498;-55
2022/12/06 02:46:11;;;;;;;1.13;0.90;;;;;;;5.44;100.00;100507.78;5030173;28;21110;-56
2022/12/06 02:48:39;;;;;;;0.60;0.60;;;;;;;5.45;100.00;100497.22;5018072;28;20528;-57
2022/12/06 02:51:11;;;;;;;1.13;0.80;;;;;;;5.54;100.00;100497.19;5023397;28;20451;-55
2022/12/06 02:53:42;;;;;;;0.40;0.40;;;;;;;5.47;100.00;100500.72;5023248;28;21074;-56
2022/12/06 02:56:08;;;;;;;0.70;0.50;;;;;;;5.53;100.00;100498.06;5022731;28;20453;-56
2022/12/06 02:58:36;;;;;;;0.90;0.47;;;;;;;5.62;100.00;100502.44;5023056;28;20525;-55
2022/12/06 03:01:16;;;;;;;0.40;0.40;;;;;;;5.68;100.00;100499.75;5017946;28;20456;-55
2022/12/06 03:04:11;;;;;;;1.47;1.37;;;;;;;5.71;100.00;100497.09;5019774;28;20509;-57
2022/12/06 03:06:48;;;;;;;2.20;1.23;;;;;;;5.55;100.00;100501.56;5020147;28;20460;-56
2022/12/06 03:09:24;;;;;;;0.70;0.70;;;;;;;5.49;100.00;100495.47;5025337;28;20503;-55
2022/12/06 03:12:02;;;;;;;0.97;0.73;;;;;;;5.43;100.00;100491.06;5026475;28;20455;-57
2022/12/06 03:14:38;;;;;;;1.50;0.37;;;;;;;5.35;100.00;100487.63;5025484;28;20549;-55
2022/12/06 03:17:19;;;;;;;0.40;0.37;;;;;;;5.45;100.00;100494.56;5024261;28;20454;-55
2022/12/06 03:19:52;;;;;;;1.40;1.30;;;;;;;5.37;100.00;100493.75;5020039;28;20452;-54
2022/12/06 03:22:28;;;;;;;0.50;0.50;;;;;;;5.35;100.00;100487.63;5024315;28;20510;-56
2022/12/06 03:24:55;;;;;;;0.37;0.30;;;;;;;5.37;100.00;100493.75;5026717;28;20874;-55
2022/12/06 03:27:24;;;;;;;0.60;0.60;;;;;;;5.31;100.00;100488.50;5023933;28;20954;-55
2022/12/06 03:29:55;;;;;;;0.57;0.57;;;;;;;5.27;100.00;100485.00;5019699;28;20451;-55
2022/12/06 03:32:27;;;;;;;0.70;0.70;;;;;;;5.36;100.00;100489.38;5021840;28;20538;-57
2022/12/06 03:34:56;;;;;;;0.40;0.23;;;;;;;5.42;100.00;100491.09;5026072;28;20945;-55
2022/12/06 03:37:25;;;;;;;0.30;0.30;;;;;;;5.50;100.00;100486.66;5026025;28;20479;-55
2022/12/06 03:40:01;;;;;;;0.40;0.30;;;;;;;5.39;100.00;100488.47;5028606;28;20447;-55
2022/12/06 03:42:30;;;;;;;1.03;1.00;;;;;;;5.31;100.00;100481.47;5036160;28;20451;-54
2022/12/06 03:44:58;;;;;;;0.40;0.40;;;;;;;5.35;100.00;100484.97;5021143;28;20481;-54
2022/12/06 03:47:57;;;;;;;1.43;0.37;;;;;;;5.28;100.00;100480.59;5028880;28;20483;-56
2022/12/06 03:50:38;;;;;;;0.40;0.30;;;;;;;5.22;100.00;100485.91;5009090;28;20447;-55
2022/12/06 03:53:05;;;;;;;1.00;0.63;;;;;;;5.14;100.00;100483.28;5021763;28;20459;-55
2022/12/06 03:55:32;;;;;;;0.57;0.57;;;;;;;5.17;100.00;100475.38;5018959;28;20964;-55
2022/12/06 03:57:58;;;;;;;0.70;0.50;;;;;;;5.13;100.00;100478.03;5023949;28;20523;-57
2022/12/06 04:00:25;;;;;;;0.70;0.70;;;;;;;5.13;100.00;100478.03;5026446;28;20543;-55
2022/12/06 04:02:51;;;;;;;0.40;0.30;;;;;;;5.12;100.00;100484.19;5021616;28;20474;-56
2022/12/06 04:05:18;;;;;;;0.60;0.60;;;;;;;5.11;100.00;100482.44;5019504;28;20453;-56
2022/12/06 04:07:44;;;;;;;1.03;0.60;;;;;;;5.14;100.00;100480.66;5023174;28;20497;-56
2022/12/06 04:10:11;;;;;;;0.50;0.40;;;;;;;5.26;100.00;100482.38;5025065;28;20456;-55
2022/12/06 04:15:22;;;;;;;0.50;0.40;;;;;;;5.35;100.00;100469.16;5019382;28;20444;-55
2022/12/06 04:23:19;;;;;;;0.30;0.30;;;;;;;5.39;100.00;100473.53;5025394;28;20448;-56
2022/12/06 04:25:46;;;;;;;0.60;0.50;;;;;;;5.31;100.00;100462.13;5022653;28;20964;-57
2022/12/06 04:39:19;;;;;;;0.37;0.30;;;;;;;5.15;100.00;100468.34;5029657;28;20505;-54
2022/12/06 04:44:32;;;;;;;0.40;0.30;;;;;;;5.07;100.00;100468.38;5026851;28;21003;-55
2022/12/06 04:46:58;;;;;;;0.97;0.97;;;;;;;5.06;100.00;100464.84;5023652;28;20451;-55
2022/12/06 04:49:25;;;;;;;0.50;0.50;;;;;;;5.14;100.00;100453.44;5018567;28;20854;-55
2022/12/06 04:51:53;;;;;;;0.40;0.40;;;;;;;5.10;100.00;100454.34;5020331;28;20464;-55
2022/12/06 04:54:20;;;;;;;0.60;0.57;;;;;;;5.11;100.00;100454.31;5025250;28;20950;-55
2022/12/06 04:56:47;;;;;;;0.77;0.60;;;;;;;5.06;100.00;100456.09;5024386;28;20456;-55
2022/12/06 04:59:13;;;;;;;0.50;0.40;;;;;;;5.13;100.00;100455.19;5018471;28;20463;-54
2022/12/06 05:01:40;;;;;;;0.47;0.47;;;;;;;5.16;100.00;100454.28;5019275;28;20460;-54
2022/12/06 05:04:06;;;;;;;0.43;0.40;;;;;;;5.12;100.00;100461.34;5025333;28;20452;-55
2022/12/06 05:06:33;;;;;;;0.33;0.33;;;;;;;5.05;100.00;100462.22;5024458;28;20482;-55
2022/12/06 05:08:59;;;;;;;0.60;0.50;;;;;;;5.11;100.00;100445.56;5017863;28;20545;-56
2022/12/06 05:11:26;;;;;;;0.50;0.50;;;;;;;5.05;100.00;100455.22;5018713;28;20804;-55
2022/12/06 05:13:52;;;;;;;0.37;0.33;;;;;;;5.00;100.00;100457.00;5024842;28;20457;-56
2022/12/06 05:16:19;;;;;;;0.30;0.20;;;;;;;5.01;100.00;100455.22;5024200;28;20448;-56
2022/12/06 05:18:45;;;;;;;0.30;0.20;;;;;;;4.97;100.00;100459.66;5024946;28;21013;-56
2022/12/06 05:21:16;;;;;;;0.57;0.57;;;;;;;4.97;100.00;100456.13;5023823;28;21034;-54
2022/12/06 05:23:43;;;;;;;0.70;0.70;;;;;;;5.02;100.00;100452.59;5024795;28;20817;-55
2022/12/06 05:26:15;;;;;;;0.40;0.40;;;;;;;5.13;100.00;100457.81;5023629;28;20948;-54
2022/12/06 05:28:42;;;;;;;1.20;0.93;;;;;;;5.32;100.00;100461.25;5018199;28;20492;-56
2022/12/06 05:31:10;;;;;;;0.43;0.43;;;;;;;5.45;100.00;100465.59;5016755;28;20452;-57
2022/12/06 05:33:37;;;;;;;0.83;0.83;;;;;;;5.23;100.00;100461.31;5022947;28;20523;-56
2022/12/06 05:36:08;;;;;;;1.13;1.13;;;;;;;5.11;100.00;100458.72;5023904;28;20462;-56
2022/12/06 05:38:35;;;;;;;0.70;0.70;;;;;;;5.16;100.00;100456.94;5019657;28;20991;-55
2022/12/06 05:41:03;;;;;;;0.37;0.30;;;;;;;5.04;100.00;100458.72;5043722;28;20451;-56
2022/12/06 05:43:30;;;;;;;0.53;0.53;;;;;;;5.07;100.00;100455.19;5021126;28;20807;-56
2022/12/06 05:45:57;;;;;;;0.40;0.40;;;;;;;5.04;100.00;100456.09;5025875;28;20452;-56
2022/12/06 05:48:24;;;;;;;0.93;0.73;;;;;;;5.07;100.00;100457.84;5020761;28;21028;-54
2022/12/06 05:50:50;;;;;;;1.03;1.03;;;;;;;5.06;100.00;100456.97;5024310;28;20456;-55
2022/12/06 05:53:17;;;;;;;1.23;1.17;;;;;;;4.98;100.00;100464.03;5021416;28;20455;-55
2022/12/06 05:55:43;;;;;;;0.97;0.87;;;;;;;5.05;100.00;100457.84;5017789;28;20510;-56
2022/12/06 05:58:10;;;;;;;0.73;0.50;;;;;;;5.14;100.00;100469.25;5020169;28;20468;-56
2022/12/06 06:00:37;;;;;;;0.73;0.73;;;;;;;5.23;100.00;100466.59;5023421;28;20946;-56
2022/12/06 06:03:04;;;;;;;1.10;1.10;;;;;;;5.13;100.00;100475.41;5021312;28;20513;-55
2022/12/06 06:05:32;;;;;;;0.30;0.30;;;;;;;5.21;100.00;100471.88;5017274;28;21014;-56
2022/12/06 06:07:58;;;;;;;0.43;0.40;;;;;;;5.17;100.00;100472.72;5019000;28;20550;-56
2022/12/06 06:10:25;;;;;;;1.23;0.40;;;;;;;5.08;100.00;100472.78;5023201;28;20456;-57
2022/12/06 06:12:51;;;;;;;0.47;0.47;;;;;;;5.08;100.00;100477.19;5022006;28;20455;-56
2022/12/06 06:15:18;;;;;;;3.43;0.70;;;;;;;5.05;100.00;100478.91;5017267;28;20497;-56
2022/12/06 06:17:44;;;;;;;0.57;0.57;;;;;;;5.05;100.00;100481.56;5030707;28;20501;-57
2022/12/06 06:20:12;;;;;;;1.87;1.33;;;;;;;4.98;100.00;100479.84;5018631;28;20452;-55
2022/12/06 06:22:40;;;;;;;0.63;0.63;;;;;;;5.01;100.00;100485.09;5023287;28;20460;-56
2022/12/06 06:25:07;;;;;;;0.30;0.30;;;;;;;4.99;100.00;100473.69;5024220;28;20467;-56
2022/12/06 06:27:38;;;;;;;1.23;1.10;;;;;;;4.99;100.00;100478.94;5023254;28;20476;-56
2022/12/06 06:30:07;;;;;;;1.30;1.10;;;;;;;5.02;100.00;100485.97;5018357;28;20490;-56
2022/12/06 06:32:35;;;;;;;0.60;0.60;;;;;;;5.08;100.00;100482.44;5017231;28;20453;-55
2022/12/06 06:35:02;;;;;;;1.03;1.03;;;;;;;4.99;100.00;100483.34;5022828;28;20532;-57
2022/12/06 06:37:29;;;;;;;0.67;0.67;;;;;;;5.11;100.00;100482.44;5007874;28;20484;-55
2022/12/06 06:39:55;;;;;;;0.83;0.83;;;;;;;5.01;100.00;100481.56;5023662;28;20806;-56
2022/12/06 06:42:22;;;;;;;1.00;1.00;;;;;;;5.06;100.00;100479.78;5033321;28;20483;-58
2022/12/06 06:44:48;;;;;;;0.50;0.50;;;;;;;5.00;100.00;100479.81;5021950;28;20462;-56
2022/12/06 06:47:15;;;;;;;1.30;1.20;;;;;;;5.05;100.00;100470.13;5031883;28;20455;-55
2022/12/06 06:49:41;;;;;;;1.73;1.63;;;;;;;5.22;100.00;100476.25;5021162;28;20487;-55
2022/12/06 06:52:08;;;;;;;1.13;1.10;;;;;;;5.14;100.00;100477.16;5020269;28;20467;-55
2022/12/06 06:54:34;;;;;;;2.77;1.50;;;;;;;5.10;100.00;100481.56;5008349;28;20499;-55
2022/12/06 06:57:01;;;;;;;0.53;0.50;;;;;;;5.12;100.00;100487.69;5027126;28;20456;-55
2022/12/06 06:59:28;;;;;;;0.67;0.67;;;;;;;5.20;100.00;100485.88;5021799;28;20451;-56
2022/12/06 07:01:54;;;;;;;0.90;0.90;;;;;;;5.00;100.00;100485.97;5020475;28;20452;-55
2022/12/06 07:04:21;;;;;;;0.63;0.63;;;;;;;5.09;100.00;100490.34;5025716;28;20960;-56
2022/12/06 07:06:47;;;;;;;0.43;0.30;;;;;;;5.08;100.00;100479.81;5027133;28;20466;-57
2022/12/06 07:09:14;;;;;;;2.53;1.73;;;;;;;5.15;100.00;100489.44;5021552;28;20495;-55
2022/12/06 07:11:41;;;;;;;2.10;2.00;;;;;;;5.11;100.00;100480.66;5019844;28;20456;-56
2022/12/06 07:14:07;;;;;;;0.90;0.90;;;;;;;5.05;100.00;100489.44;5007579;28;20514;-56
2022/12/06 07:16:34;;;;;;;1.50;1.40;;;;;;;5.03;100.00;100485.06;5029022;28;20466;-57
2022/12/06 07:19:00;;;;;;;1.73;1.63;;;;;;;5.02;100.00;100486.84;5025084;28;20880;-56
2022/12/06 07:21:34;;;;;;;3.90;1.90;;;;;;;5.08;100.00;100483.31;5026284;28;20448;-57
2022/12/06 07:24:00;;;;;;;0.97;0.87;;;;;;;5.10;100.00;100478.91;5023457;28;20953;-56
2022/12/06 07:26:27;;;;;;;1.03;1.03;;;;;;;5.06;100.00;100488.56;5020158;28;20455;-55
2022/12/06 07:28:56;;;;;;;3.07;0.87;;;;;;;5.09;100.00;100482.44;5022730;28;20528;-56
2022/12/06 07:31:25;;;;;;;0.77;0.77;;;;;;;5.10;100.00;100481.56;5017109;28;20458;-56
2022/12/06 07:33:54;;;;;;;3.03;2.17;;;;;;;5.02;100.00;100486.84;5021837;28;20457;-57
2022/12/06 07:36:22;;;;;;;1.27;1.27;;;;;;;5.02;100.00;100481.56;5026436;28;20459;-57
2022/12/06 07:38:54;;;;;;;2.40;1.13;;;;;;;5.01;100.00;100482.44;5025041;28;20495;-55
2022/12/06 07:46:56;;;;;;;1.10;1.10;;;;;;;5.04;100.00;100481.56;5031494;28;20452;-56
2022/12/06 07:49:23;;;;;;;2.60;0.93;;;;;;;5.05;100.00;100484.19;5018993;28;21070;-55
2022/12/06 07:51:50;;;;;;;0.57;0.50;;;;;;;5.04;100.00;100481.56;5021245;28;20460;-56
2022/12/06 07:54:16;;;;;;;2.20;0.83;;;;;;;5.00;100.00;100478.06;5026544;28;20962;-55
2022/12/06 07:56:42;;;;;;;0.73;0.73;;;;;;;5.03;100.00;100474.53;5024700;28;20459;-56
2022/12/06 07:59:09;;;;;;;58.70;2.60;;;;;;;5.07;100.00;100471.00;5019399;28;20534;-56
2022/12/06 08:01:35;;;;;;;4.00;0.67;;;;;;;5.05;100.00;100471.00;5020954;28;20514;-56
2022/12/06 08:04:03;;;;;;;1.43;1.17;;;;;;;5.14;100.00;100471.88;5025994;28;20551;-56
2022/12/06 08:06:31;;;;;;;2.67;1.10;;;;;;;5.06;100.00;100466.63;5025145;28;20551;-57
2022/12/06 08:08:58;;;;;;;3.60;0.97;;;;;;;5.20;100.00;100474.47;5001253;28;21015;-57
2022/12/06 08:11:24;;;;;;;1.60;1.40;;;;;;;5.22;100.00;100475.38;5019356;28;20464;-55
2022/12/06 08:13:51;;;;;;;1.53;1.23;;;;;;;5.16;100.00;100473.63;5025430;28;21032;-57
2022/12/06 08:16:17;;;;;;;1.53;1.43;;;;;;;5.18;100.00;100470.97;5025084;28;20455;-56
2022/12/06 08:18:44;;;;;;;1.43;1.13;;;;;;;5.21;100.00;100469.22;5025820;28;21011;-56
2022/12/06 08:21:12;;;;;;;1.73;1.63;;;;;;;5.20;100.00;100470.06;5025017;28;20471;-55
2022/12/06 08:23:38;;;;;;;0.67;0.67;;;;;;;5.33;100.00;100473.53;5025546;28;20453;-56
2022/12/06 08:26:11;;;;;;;1.90;0.93;;;;;;;5.57;100.00;100472.56;5024445;28;20455;-57
2022/12/06 08:28:39;;;;;;;5.43;1.70;;;;;;;5.53;100.00;100478.75;5024184;28;21006;-56
2022/12/06 08:31:07;;;;;;;6.33;0.90;;;;;;;5.45;100.00;100473.50;5024952;28;21032;-56
2022/12/06 08:33:35;;;;;;;1.20;1.10;;;;;;;5.53;100.00;100470.84;5019484;28;20482;-57
2022/12/06 08:36:07;;;;;;;2.10;2.00;;;;;;;5.59;100.00;100471.66;5018179;28;20502;-56
2022/12/06 08:38:36;;;;;;;0.80;0.80;;;;;;;5.64;100.00;100469.88;5023070;28;20488;-59
2022/12/06 08:41:03;;;;;;;1.23;0.90;;;;;;;5.76;100.00;100473.34;5030214;28;20906;-59
2022/12/06 08:43:30;;;;;;;1.00;0.97;;;;;;;5.72;100.00;100467.19;5021768;28;20463;-58
2022/12/06 08:45:57;;;;;;;3.47;0.60;;;;;;;5.61;100.00;100469.00;5026018;28;20456;-58
2022/12/06 08:48:23;;;;;;;0.53;0.43;;;;;;;5.60;100.00;100473.41;5021792;28;20477;-59
2022/12/06 08:50:50;;;;;;;0.90;0.90;;;;;;;5.55;100.00;100466.41;5025008;28;20495;-58
2022/12/06 08:53:16;;;;;;;1.53;1.40;;;;;;;5.74;100.00;100465.41;5020981;28;20451;-58
2022/12/06 08:55:53;;;;;;;0.60;0.60;;;;;;;5.66;100.00;100469.88;5017812;28;20456;-58
2022/12/06 08:58:27;;;;;;;1.73;0.80;;;;;;;5.94;100.00;100466.22;5002365;28;20563;-59
2022/12/06 09:00:54;;;;;;;1.03;1.03;;;;;;;5.91;100.00;100474.16;5023809;28;20501;-63
2022/12/06 09:03:20;;;;;;;1.43;1.33;;;;;;;5.83;100.00;100482.97;5023435;28;20447;-58
2022/12/06 09:05:47;;;;;;;0.83;0.83;;;;;;;6.03;100.00;100488.13;5018095;28;20517;-58
2022/12/06 09:08:13;;;;;;;6.37;0.60;;;;;;;6.02;100.00;100492.53;5018177;28;20586;-58
2022/12/06 09:10:42;;;;;;;0.47;0.47;;;;;;;6.00;100.00;100489.03;5023944;28;20505;-58
2022/12/06 09:13:08;;;;;;;0.87;0.87;;;;;;;5.80;100.00;100499.69;5024526;28;20944;-58
2022/12/06 09:15:36;;;;;;;0.93;0.90;;;;;;;5.80;100.00;100498.81;5018459;28;20912;-58
2022/12/06 09:18:03;;;;;;;0.73;0.73;;;;;;;5.72;100.00;100495.31;5030292;28;20571;-59
2022/12/06 09:20:30;;;;;;;0.93;0.87;;;;;;;5.77;100.00;100502.34;5017871;28;20452;-58
2022/12/06 09:22:56;;;;;;;0.50;0.50;;;;;;;5.77;100.00;100507.63;5017451;28;21032;-58
2022/12/06 09:25:22;;;;;;;1.27;1.20;;;;;;;5.65;100.00;100508.56;5006073;28;20900;-59
2022/12/06 09:27:49;;;;;;;0.57;0.57;;;;;;;5.67;100.00;100503.28;5023936;28;21068;-57
2022/12/06 09:30:16;;;;;;;0.73;0.73;;;;;;;5.70;100.00;100510.28;5018439;28;20491;-58
2022/12/06 09:32:44;;;;;;;1.40;1.13;;;;;;;6.08;100.00;100510.97;5017072;28;20461;-59
2022/12/06 09:35:10;;;;;;;1.00;0.90;;;;;;;6.17;100.00;100502.13;5022691;28;20464;-58
2022/12/06 09:37:42;;;;;;;1.13;1.07;;;;;;;5.93;100.00;100509.31;5023856;28;20487;-58
2022/12/06 09:40:17;;;;;;;0.57;0.47;;;;;;;5.91;100.00;100505.81;5021917;28;20808;-59
2022/12/06 09:43:05;;;;;;;1.40;1.30;;;;;;;5.86;100.00;100510.19;5026699;28;20483;-57
2022/12/06 09:45:40;;;;;;;1.83;1.03;;;;;;;5.91;100.00;100512.84;5023420;28;20452;-58
2022/12/06 09:48:38;;;;;;;1.00;1.00;;;;;;;6.10;100.00;100517.09;5021220;28;20476;-58
2022/12/06 09:51:25;;;;;;;2.63;0.60;;;;;;;6.12;100.00;100517.09;5017019;28;20450;-58
2022/12/06 09:54:10;;;;;;;1.93;1.23;;;;;;;5.98;100.00;100519.81;5017035;28;20456;-58
2022/12/06 09:56:49;;;;;;;0.53;0.53;;;;;;;6.03;100.00;100520.69;5018680;28;20519;-58
2022/12/06 09:59:26;;;;;;;0.70;0.63;;;;;;;6.01;100.00;100521.56;5016917;28;20467;-58
2022/12/06 10:02:16;;;;;;;0.50;0.40;;;;;;;6.24;100.00;100520.53;5016770;28;20459;-58
2022/12/06 10:05:07;;;;;;;1.43;0.80;;;;;;;6.15;100.00;100517.06;5018978;28;20453;-58
2022/12/06 10:07:49;;;;;;;0.90;0.90;;;;;;;6.20;100.00;100521.44;5018344;28;20483;-59
2022/12/06 10:10:34;;;;;;;1.97;1.50;;;;;;;6.34;100.00;100518.72;4999095;28;20575;-58
2022/12/06 10:13:17;;;;;;;0.90;0.90;;;;;;;6.28;100.00;100516.09;5021240;28;20464;-58
2022/12/06 10:15:49;;;;;;;0.60;0.60;;;;;;;6.26;100.00;100511.72;5023026;28;20451;-58
2022/12/06 10:18:33;;;;;;;0.60;0.60;;;;;;;6.34;100.00;100510.78;5027584;28;20480;-58
2022/12/06 10:21:09;;;;;;;0.60;0.57;;;;;;;6.45;100.00;100502.78;5025916;28;20915;-61
2022/12/06 10:23:38;;;;;;;0.50;0.50;;;;;;;6.56;100.00;100498.25;5020609;28;20451;-57
2022/12/06 10:26:15;;;;;;;0.60;0.60;;;;;;;6.33;100.00;100494.97;5020340;28;20534;-58
2022/12/06 10:29:00;;;;;;;0.63;0.63;;;;;;;6.63;100.00;100502.63;5008059;28;20468;-58
2022/12/06 10:31:35;;;;;;;3.13;0.77;;;;;;;6.27;100.00;100505.56;5027411;28;20464;-58
2022/12/06 10:34:14;;;;;;;0.73;0.73;;;;;;;6.42;100.00;100506.31;5026353;28;20443;-57
2022/12/06 10:37:05;;;;;;;1.33;1.27;;;;;;;6.26;100.00;100496.75;5027153;28;20448;-57
2022/12/06 10:39:45;;;;;;;0.80;0.70;;;;;;;6.45;100.00;100497.50;5035520;28;20921;-57
2022/12/06 10:42:39;;;;;;;0.73;0.73;;;;;;;6.29;100.00;100499.38;5040222;28;20952;-56
2022/12/06 10:48:50;;;;;;;0.50;0.50;;;;;;;6.35;100.00;100495.81;5025204;28;20484;-57
2022/12/06 10:51:22;;;;;;;0.60;0.40;;;;;;;6.35;100.00;100494.06;5009030;28;20871;-57
2022/12/06 10:53:55;;;;;;;0.30;0.30;;;;;;;6.10;100.00;100492.47;5027672;28;20447;-58
2022/12/06 10:56:34;;;;;;;0.93;0.90;;;;;;;6.29;100.00;100496.72;5005258;28;20444;-57
2022/12/06 10:59:26;;;;;;;1.20;1.07;;;;;;;6.42;100.00;100495.75;5020261;28;20471;-58
2022/12/06 11:01:57;;;;;;;1.13;0.80;;;;;;;6.27;100.00;100495.00;5002632;28;20459;-57
2022/12/06 11:04:31;;;;;;;1.43;1.33;;;;;;;6.45;100.00;100501.03;5025156;28;20455;-57
2022/12/06 11:07:04;;;;;;;0.53;0.50;;;;;;;6.26;100.00;100490.59;5027309;28;20497;-56
2022/12/06 11:09:47;;;;;;;1.13;1.13;;;;;;;6.37;100.00;100497.56;5023709;28;20491;-58
2022/12/06 11:12:28;;;;;;;1.47;1.37;;;;;;;6.37;100.00;100496.69;5019414;28;20447;-58
2022/12/06 11:15:21;;;;;;;1.30;0.83;;;;;;;6.52;100.00;100499.19;5019496;28;20942;-58
2022/12/06 11:17:52;;;;;;;1.03;0.90;;;;;;;6.27;100.00;100500.28;5032994;28;20464;-58
2022/12/06 11:20:31;;;;;;;0.50;0.50;;;;;;;6.40;100.00;100494.88;5019521;28;20505;-57
2022/12/06 11:23:36;;;;;;;1.43;0.83;;;;;;;6.35;100.00;100495.81;5018998;28;20645;-57
2022/12/06 11:26:30;;;;;;;0.87;0.60;;;;;;;6.56;100.00;100498.25;5019739;28;20452;-61
2022/12/06 11:29:04;;;;;;;1.90;1.43;;;;;;;6.75;100.00;100491.94;5022139;28;21019;-58
2022/12/06 11:31:51;;;;;;;0.60;0.60;;;;;;;6.76;100.00;100498.97;5001610;28;20549;-58
2022/12/06 11:34:22;;;;;;;0.70;0.70;;;;;;;6.82;100.00;100503.31;5019454;28;20547;-58
2022/12/06 11:36:51;;;;;;;1.80;1.10;;;;;;;6.44;100.00;100494.00;5024491;28;20460;-57
2022/12/06 11:39:26;;;;;;;1.87;1.43;;;;;;;6.47;100.00;100495.72;5011428;28;20861;-57
2022/12/06 11:41:56;;;;;;;0.40;0.40;;;;;;;6.59;100.00;100497.38;5031710;28;20456;-57
2022/12/06 11:44:26;;;;;;;0.97;0.97;;;;;;;6.57;100.00;100496.50;5018594;28;20448;-58
2022/12/06 11:46:59;;;;;;;1.73;1.63;;;;;;;6.38;100.00;100496.66;5029652;28;20509;-57
2022/12/06 11:49:40;;;;;;;0.80;0.80;;;;;;;6.47;100.00;100491.31;5026297;28;20472;-58
2022/12/06 11:52:17;;;;;;;0.30;0.30;;;;;;;6.47;100.00;100491.31;5025711;28;20462;-58
2022/12/06 11:54:50;;;;;;;1.20;0.70;;;;;;;6.36;100.00;100492.28;5020877;28;20933;-58
2022/12/06 11:57:24;;;;;;;0.90;0.70;;;;;;;6.33;100.00;100487.03;5018394;28;21274;-58
2022/12/06 12:00:24;;;;;;;0.80;0.80;;;;;;;6.40;100.00;100484.31;5021792;28;20479;-57
2022/12/06 12:02:53;;;;;;;1.20;0.70;;;;;;;6.46;100.00;100488.69;5021048;28;20513;-57
2022/12/06 12:05:19;;;;;;;1.10;0.70;;;;;;;6.69;100.00;100491.09;5018580;28;20456;-57
2022/12/06 12:07:52;;;;;;;0.70;0.70;;;;;;;6.56;100.00;100484.19;5022891;28;20472;-57
2022/12/06 12:10:37;;;;;;;1.10;0.73;;;;;;;6.69;100.00;100481.41;5025333;28;21016;-57
2022/12/06 12:13:43;;;;;;;1.60;1.50;;;;;;;6.66;100.00;100476.16;5024838;28;20447;-58
2022/12/06 12:16:18;;;;;;;1.40;1.30;;;;;;;7.06;100.00;100468.69;5022858;28;20550;-58